createdAt,value
2023-01-05T00:00:09.570Z,3.68
2023-01-05T00:02:42.086Z,3.59
2023-01-05T00:05:08.873Z,3.55
2023-01-05T00:07:35.436Z,3.56
2023-01-05T00:10:02.054Z,3.54
2023-01-05T00:12:47.243Z,3.51
2023-01-05T00:15:32.684Z,3.56
2023-01-05T00:18:18.068Z,3.58
2023-01-05T00:21:03.498Z,3.64
2023-01-05T00:23:30.201Z,3.65
2023-01-05T00:25:56.734Z,3.77
2023-01-05T00:28:23.443Z,3.78
2023-01-05T00:30:49.998Z,3.85
2023-01-05T00:33:17.273Z,3.83
2023-01-05T00:35:44.094Z,3.87
2023-01-05T00:38:10.769Z,3.85
2023-01-05T00:40:38.384Z,3.73
2023-01-05T00:43:05.401Z,3.66
2023-01-05T00:45:32.637Z,3.59
2023-01-05T00:48:00.089Z,3.50
2023-01-05T00:50:27.668Z,3.43
2023-01-05T00:52:54.249Z,3.39
2023-01-05T00:55:20.945Z,3.33
2023-01-05T00:57:47.493Z,3.23
2023-01-05T01:00:15.849Z,3.19
2023-01-05T01:02:42.497Z,3.21
2023-01-05T01:05:09.798Z,3.09
2023-01-05T01:07:36.366Z,3.02
2023-01-05T01:10:04.913Z,2.92
2023-01-05T01:12:31.558Z,2.89
2023-01-05T01:14:58.260Z,2.75
2023-01-05T01:17:24.861Z,2.69
2023-01-05T01:19:51.518Z,2.63
2023-01-05T01:22:18.115Z,2.57
2023-01-05T01:24:44.733Z,2.59
2023-01-05T01:27:11.616Z,2.53
2023-01-05T01:29:39.469Z,2.47
2023-01-05T01:32:05.995Z,2.49
2023-01-05T01:34:33.850Z,2.49
2023-01-05T01:39:35.321Z,2.65
2023-01-05T01:42:06.398Z,2.70
2023-01-05T01:44:52.860Z,2.68
2023-01-05T01:47:24.879Z,2.69
2023-01-05T01:49:54.022Z,2.65
2023-01-05T01:52:21.706Z,2.70
2023-01-05T01:54:50.683Z,2.78
2023-01-05T01:57:17.307Z,2.91
2023-01-05T01:59:44.114Z,3.12
2023-01-05T02:02:11.265Z,3.24
2023-01-05T02:04:39.001Z,3.24
2023-01-05T02:07:07.319Z,3.28
2023-01-05T02:09:34.124Z,3.42
2023-01-05T02:12:13.039Z,3.46
2023-01-05T02:14:42.747Z,3.60
2023-01-05T02:17:09.334Z,3.56
2023-01-05T02:19:45.412Z,3.59
2023-01-05T02:22:29.628Z,3.63
2023-01-05T02:24:59.380Z,3.54
2023-01-05T02:27:35.729Z,3.59
2023-01-05T02:30:11.475Z,3.53
2023-01-05T02:32:38.034Z,3.42
2023-01-05T02:35:18.256Z,3.41
2023-01-05T02:37:51.971Z,3.30
2023-01-05T02:40:21.941Z,3.20
2023-01-05T02:42:51.626Z,3.04
2023-01-05T02:45:21.806Z,3.06
2023-01-05T02:47:49.749Z,3.09
2023-01-05T02:50:24.033Z,3.13
2023-01-05T02:52:50.655Z,3.14
2023-01-05T02:55:20.691Z,3.07
2023-01-05T02:57:56.049Z,3.05
2023-01-05T03:00:26.804Z,3.06
2023-01-05T03:03:01.705Z,3.02
2023-01-05T03:05:34.835Z,2.95
2023-01-05T03:08:07.979Z,2.90
2023-01-05T03:11:11.107Z,2.92
2023-01-05T03:13:41.845Z,2.95
2023-01-05T03:16:12.715Z,2.91
2023-01-05T03:19:00.811Z,2.82
2023-01-05T03:21:29.141Z,2.77
2023-01-05T03:24:17.897Z,2.75
2023-01-05T03:27:03.353Z,2.75
2023-01-05T03:29:48.571Z,2.68
2023-01-05T03:32:53.717Z,2.58
2023-01-05T03:35:34.664Z,2.52
2023-01-05T03:38:07.756Z,2.55
2023-01-05T03:40:37.245Z,2.59
2023-01-05T03:43:04.603Z,2.65
2023-01-05T03:45:34.600Z,2.58
2023-01-05T03:48:02.604Z,2.51
2023-01-05T03:50:29.610Z,2.44
2023-01-05T03:52:56.249Z,2.42
2023-01-05T03:55:23.036Z,2.41
2023-01-05T03:57:52.281Z,2.32
2023-01-05T04:00:20.999Z,2.22
2023-01-05T04:02:55.563Z,2.15
2023-01-05T04:05:22.800Z,2.31
2023-01-05T04:07:49.358Z,2.33
2023-01-05T04:10:16.106Z,2.41
2023-01-05T04:12:43.848Z,2.39
2023-01-05T04:15:11.192Z,2.33
2023-01-05T04:17:38.109Z,2.27
2023-01-05T04:20:07.968Z,2.15
2023-01-05T04:22:34.834Z,2.14
2023-01-05T04:25:01.781Z,2.08
2023-01-05T04:27:30.739Z,2.04
2023-01-05T04:29:57.550Z,2.03
2023-01-05T04:32:24.272Z,2.04
2023-01-05T04:34:51.161Z,1.95
2023-01-05T04:37:20.515Z,1.92
2023-01-05T04:39:47.547Z,1.93
2023-01-05T04:42:15.095Z,1.96
2023-01-05T04:44:43.188Z,2.01
2023-01-05T04:47:10.858Z,2.05
2023-01-05T04:49:40.397Z,2.06
2023-01-05T04:52:08.925Z,2.07
2023-01-05T04:54:35.802Z,2.04
2023-01-05T04:57:04.335Z,1.99
2023-01-05T04:59:30.962Z,1.88
2023-01-05T05:02:01.849Z,1.81
2023-01-05T05:04:30.931Z,1.77
2023-01-05T05:06:59.229Z,1.85
2023-01-05T05:09:30.045Z,1.91
2023-01-05T05:11:58.518Z,1.91
2023-01-05T05:14:25.186Z,1.77
2023-01-05T05:16:53.601Z,1.63
2023-01-05T05:19:20.224Z,1.62
2023-01-05T05:21:48.070Z,1.62
2023-01-05T05:24:14.962Z,1.64
2023-01-05T05:26:44.544Z,1.61
2023-01-05T05:29:11.165Z,1.57
2023-01-05T05:31:37.792Z,1.49
2023-01-05T05:34:04.428Z,1.45
2023-01-05T05:36:32.044Z,1.37
2023-01-05T05:38:58.873Z,1.32
2023-01-05T05:41:25.401Z,1.32
2023-01-05T05:43:52.036Z,1.33
2023-01-05T05:46:18.607Z,1.33
2023-01-05T05:48:45.239Z,1.32
2023-01-05T05:51:37.451Z,1.31
2023-01-05T05:54:04.190Z,1.41
2023-01-05T05:56:30.869Z,1.47
2023-01-05T05:59:01.311Z,1.45
2023-01-05T06:01:28.679Z,1.52
2023-01-05T06:03:55.401Z,1.52
2023-01-05T06:06:22.029Z,1.48
2023-01-05T06:08:48.773Z,1.53
2023-01-05T06:11:15.373Z,1.60
2023-01-05T06:13:42.310Z,1.61
2023-01-05T06:16:09.017Z,1.61
2023-01-05T06:18:35.650Z,1.59
2023-01-05T06:21:02.298Z,1.62
2023-01-05T06:23:29.109Z,1.68
2023-01-05T06:25:55.703Z,1.69
2023-01-05T06:28:22.232Z,1.69
2023-01-05T06:30:48.927Z,1.68
2023-01-05T06:33:15.594Z,1.58
2023-01-05T06:35:42.201Z,1.60
2023-01-05T06:38:11.034Z,1.58
2023-01-05T06:40:39.202Z,1.56
2023-01-05T06:43:05.944Z,1.57
2023-01-05T06:45:32.554Z,1.50
2023-01-05T06:48:01.075Z,1.57
2023-01-05T06:50:27.661Z,1.57
2023-01-05T06:52:54.291Z,1.62
2023-01-05T06:55:22.105Z,1.61
2023-01-05T06:57:48.854Z,1.49
2023-01-05T07:00:16.255Z,1.60
2023-01-05T07:02:43.145Z,1.65
2023-01-05T07:05:10.172Z,1.70
2023-01-05T07:07:37.152Z,1.65
2023-01-05T07:10:04.172Z,1.61
2023-01-05T07:12:31.021Z,1.54
2023-01-05T07:14:58.053Z,1.54
2023-01-05T07:17:24.910Z,1.54
2023-01-05T07:19:51.622Z,1.51
2023-01-05T07:22:18.451Z,1.60
2023-01-05T07:24:45.089Z,1.61
2023-01-05T07:27:11.705Z,1.61
2023-01-05T07:29:38.393Z,1.67
2023-01-05T07:32:05.143Z,1.56
2023-01-05T07:34:31.786Z,1.46
2023-01-05T07:36:58.337Z,1.39
2023-01-05T07:39:24.978Z,1.34
2023-01-05T07:41:51.519Z,1.32
2023-01-05T07:44:18.860Z,1.32
2023-01-05T07:46:45.382Z,1.27
2023-01-05T07:49:11.971Z,1.31
2023-01-05T07:51:38.512Z,1.38
2023-01-05T07:54:05.101Z,1.36
2023-01-05T07:56:31.670Z,1.45
2023-01-05T07:58:58.864Z,1.47
2023-01-05T08:01:25.569Z,1.50
2023-01-05T08:03:52.557Z,1.47
2023-01-05T08:06:20.251Z,1.42
2023-01-05T08:08:47.419Z,1.34
2023-01-05T08:11:17.429Z,1.29
2023-01-05T08:14:00.128Z,1.25
2023-01-05T08:16:27.424Z,1.22
2023-01-05T08:18:55.360Z,1.20
2023-01-05T08:21:22.047Z,1.27
2023-01-05T08:23:50.500Z,1.29
2023-01-05T08:26:18.304Z,1.23
2023-01-05T08:28:45.264Z,1.14
2023-01-05T08:31:19.368Z,1.12
2023-01-05T08:33:46.164Z,1.12
2023-01-05T08:36:14.390Z,1.09
2023-01-05T08:38:48.351Z,1.14
2023-01-05T08:41:16.569Z,1.17
2023-01-05T08:43:43.179Z,1.15
2023-01-05T08:46:09.870Z,1.13
2023-01-05T08:48:36.506Z,1.11
2023-01-05T08:51:07.390Z,1.11
2023-01-05T08:53:34.789Z,1.12
2023-01-05T08:56:02.050Z,1.07
2023-01-05T08:58:28.744Z,1.11
2023-01-05T09:00:55.440Z,1.13
2023-01-05T09:03:22.184Z,1.19
2023-01-05T09:05:52.204Z,1.28
2023-01-05T09:08:18.963Z,1.26
2023-01-05T09:10:45.606Z,1.33
2023-01-05T09:13:12.250Z,1.36
2023-01-05T09:15:39.003Z,1.42
2023-01-05T09:18:05.617Z,1.49
2023-01-05T09:20:39.384Z,1.56
2023-01-05T09:23:06.645Z,1.73
2023-01-05T09:25:33.289Z,2.10
2023-01-05T09:27:59.915Z,2.63
2023-01-05T09:30:26.565Z,2.90
2023-01-05T09:32:53.193Z,3.35
2023-01-05T09:35:20.276Z,3.61
2023-01-05T09:37:46.893Z,3.70
2023-01-05T09:40:13.821Z,3.73
2023-01-05T09:42:42.379Z,3.78
2023-01-05T09:45:11.626Z,3.81
2023-01-05T09:47:40.684Z,3.79
2023-01-05T09:50:16.829Z,3.77
2023-01-05T09:52:43.485Z,3.87
2023-01-05T09:55:15.184Z,4.05
2023-01-05T09:57:42.881Z,4.11
2023-01-05T10:00:15.515Z,4.01
2023-01-05T10:02:42.343Z,3.83
2023-01-05T10:05:12.470Z,3.82
2023-01-05T10:07:48.145Z,3.82
2023-01-05T10:10:31.084Z,3.79
2023-01-05T10:13:06.855Z,3.67
2023-01-05T10:15:52.611Z,3.51
2023-01-05T10:18:22.584Z,3.43
2023-01-05T10:20:55.276Z,3.47
2023-01-05T10:23:30.327Z,3.45
2023-01-05T10:26:04.774Z,3.45
2023-01-05T10:28:46.014Z,3.42
2023-01-05T10:31:15.573Z,3.35
2023-01-05T10:33:55.852Z,3.31
2023-01-05T10:36:49.190Z,3.24
2023-01-05T10:39:23.486Z,3.22
2023-01-05T10:41:52.964Z,3.20
2023-01-05T10:44:38.008Z,3.18
2023-01-05T10:47:07.993Z,3.19
2023-01-05T10:49:34.724Z,3.20
2023-01-05T10:52:01.864Z,3.15
2023-01-05T10:54:34.522Z,3.16
2023-01-05T10:57:19.864Z,3.14
2023-01-05T10:59:57.035Z,3.10
2023-01-05T11:02:24.389Z,3.06
2023-01-05T11:04:51.497Z,3.04
2023-01-05T11:07:18.211Z,3.02
2023-01-05T11:09:48.273Z,3.04
2023-01-05T11:12:23.093Z,3.00
2023-01-05T11:14:58.443Z,2.96
2023-01-05T11:17:27.385Z,2.96
2023-01-05T11:19:55.333Z,2.95
2023-01-05T11:22:33.793Z,2.95
2023-01-05T11:25:18.918Z,2.96
2023-01-05T11:27:48.860Z,2.99
2023-01-05T11:30:21.652Z,3.03
2023-01-05T11:32:48.502Z,3.03
2023-01-05T11:35:19.815Z,3.02
2023-01-05T11:37:46.522Z,3.05
2023-01-05T11:40:17.517Z,3.09
2023-01-05T11:42:44.923Z,3.10
2023-01-05T11:45:14.251Z,3.14
2023-01-05T11:47:44.850Z,3.19
2023-01-05T11:50:25.152Z,3.23
2023-01-05T11:52:56.104Z,3.24
2023-01-05T11:55:39.949Z,3.25
2023-01-05T11:58:21.832Z,3.27
2023-01-05T12:01:07.154Z,3.30
2023-01-05T12:03:34.728Z,3.36
2023-01-05T12:06:21.545Z,3.36
2023-01-05T12:09:11.997Z,3.41
2023-01-05T12:11:47.870Z,3.44
2023-01-05T12:14:33.095Z,3.51
2023-01-05T12:17:03.674Z,3.56
2023-01-05T12:19:48.828Z,3.66
2023-01-05T12:22:33.561Z,3.75
2023-01-05T12:25:09.024Z,3.71
2023-01-05T12:27:41.493Z,3.74
2023-01-05T12:34:01.481Z,3.83
2023-01-05T12:35:56.885Z,3.85
2023-01-05T12:38:29.466Z,3.87
2023-01-05T12:41:05.626Z,3.87
2023-01-05T12:43:44.516Z,3.92
2023-01-05T12:46:29.094Z,3.93
2023-01-05T12:48:59.187Z,3.94
2023-01-05T12:51:32.662Z,3.94
2023-01-05T12:53:59.253Z,3.93
2023-01-05T12:56:34.066Z,3.93
2023-01-05T12:59:00.698Z,3.88
2023-01-05T13:01:29.836Z,3.92
2023-01-05T13:03:58.585Z,3.90
2023-01-05T13:06:26.565Z,3.81
2023-01-05T13:09:02.782Z,3.79
2023-01-05T13:11:29.374Z,3.79
2023-01-05T13:14:03.399Z,3.86
2023-01-05T13:16:36.785Z,3.88
2023-01-05T13:19:22.774Z,3.90
2023-01-05T13:21:50.026Z,3.94
2023-01-05T13:24:40.179Z,3.97
2023-01-05T13:27:06.841Z,3.98
2023-01-05T13:29:36.524Z,3.96
2023-01-05T13:32:21.707Z,3.97
2023-01-05T13:34:51.110Z,3.98
2023-01-05T13:37:39.429Z,3.96
2023-01-05T13:40:09.048Z,3.97
2023-01-05T13:42:47.662Z,3.96
2023-01-05T13:45:36.997Z,3.94
2023-01-05T13:50:56.812Z,4.04
2023-01-05T13:53:25.663Z,4.21
2023-01-05T13:56:01.392Z,4.29
2023-01-05T13:58:38.507Z,4.36
2023-01-05T14:01:07.409Z,4.41
2023-01-05T14:03:41.470Z,4.50
2023-01-05T14:06:20.607Z,4.58
2023-01-05T14:08:50.715Z,4.58
2023-01-05T14:11:18.876Z,4.57
2023-01-05T14:13:51.368Z,4.57
2023-01-05T14:16:36.541Z,4.64
2023-01-05T14:19:26.516Z,4.70
2023-01-05T14:21:59.881Z,4.86
2023-01-05T14:24:29.689Z,4.98
2023-01-05T14:27:03.325Z,5.13
2023-01-05T14:29:45.391Z,5.19
2023-01-05T14:32:13.692Z,5.28
2023-01-05T14:35:00.574Z,5.45
2023-01-05T14:37:38.916Z,5.60
2023-01-05T14:40:25.035Z,5.72
2023-01-05T14:42:51.854Z,5.82
2023-01-05T14:45:23.163Z,5.96
2023-01-05T14:47:51.073Z,5.99
2023-01-05T14:50:26.730Z,5.97
2023-01-05T14:52:53.326Z,6.04
2023-01-05T14:55:37.863Z,6.10
2023-01-05T14:58:25.747Z,6.09
2023-01-05T15:00:55.366Z,6.15
2023-01-05T15:03:26.898Z,6.19
2023-01-05T15:06:15.628Z,6.18
2023-01-05T15:09:14.555Z,6.21
2023-01-05T15:11:50.231Z,6.24
2023-01-05T15:14:32.087Z,6.26
2023-01-05T15:17:06.954Z,6.26
2023-01-05T15:19:42.886Z,6.27
2023-01-05T15:22:38.193Z,6.27
2023-01-05T15:25:20.747Z,6.31
2023-01-05T15:27:50.260Z,6.37
2023-01-05T15:30:30.377Z,6.41
2023-01-05T15:33:17.209Z,6.43
2023-01-05T15:35:47.343Z,6.44
2023-01-05T15:38:37.867Z,6.46
2023-01-05T15:41:09.219Z,6.47
2023-01-05T15:43:37.531Z,6.49
2023-01-05T15:46:04.320Z,6.53
2023-01-05T15:48:33.550Z,6.52
2023-01-05T15:51:00.592Z,6.54
2023-01-05T15:53:29.359Z,6.58
2023-01-05T15:55:57.063Z,6.57
2023-01-05T15:58:25.671Z,6.57
2023-01-05T16:01:06.464Z,6.59
2023-01-05T16:03:35.149Z,6.58
2023-01-05T16:06:03.806Z,6.59
2023-01-05T16:08:31.727Z,6.61
2023-01-05T16:11:00.891Z,6.62
2023-01-05T16:13:34.713Z,6.61
2023-01-05T16:16:03.201Z,6.65
2023-01-05T16:18:34.527Z,6.70
2023-01-05T16:21:05.563Z,6.66
2023-01-05T16:23:44.370Z,6.67
2023-01-05T16:26:15.303Z,6.70
2023-01-05T16:28:42.142Z,6.67
2023-01-05T16:31:22.427Z,6.69
2023-01-05T16:34:00.636Z,6.71
2023-01-05T16:36:27.256Z,6.71
2023-01-05T16:39:11.830Z,6.74
2023-01-05T16:41:58.475Z,6.78
2023-01-05T16:44:25.130Z,6.77
2023-01-05T16:47:03.577Z,6.77
2023-01-05T16:49:46.400Z,6.83
2023-01-05T16:52:23.885Z,6.84
2023-01-05T16:55:14.457Z,6.88
2023-01-05T16:57:43.600Z,6.91
2023-01-05T17:00:33.339Z,6.92
2023-01-05T17:03:01.052Z,6.96
2023-01-05T17:05:29.097Z,6.99
2023-01-05T17:08:19.948Z,7.01
2023-01-05T17:10:46.950Z,7.03
2023-01-05T17:13:16.082Z,7.05
2023-01-05T17:15:43.930Z,7.08
2023-01-05T17:18:15.441Z,7.09
2023-01-05T17:20:42.600Z,7.15
2023-01-05T17:23:13.825Z,7.17
2023-01-05T17:25:40.470Z,7.21
2023-01-05T17:28:07.113Z,7.20
2023-01-05T17:30:34.063Z,7.25
2023-01-05T17:33:00.694Z,7.27
2023-01-05T17:35:27.371Z,7.32
2023-01-05T17:37:54.431Z,7.32
2023-01-05T17:40:21.953Z,7.32
2023-01-05T17:42:48.979Z,7.36
2023-01-05T17:45:20.053Z,7.36
2023-01-05T17:47:47.512Z,7.39
2023-01-05T17:50:15.551Z,7.40
2023-01-05T17:52:42.609Z,7.42
2023-01-05T17:55:10.044Z,7.44
2023-01-05T17:57:36.688Z,7.47
2023-01-05T18:00:07.383Z,7.48
2023-01-05T18:02:34.246Z,7.50
2023-01-05T18:05:01.025Z,7.51
2023-01-05T18:07:29.579Z,7.53
2023-01-05T18:09:57.065Z,7.52
2023-01-05T18:12:24.161Z,7.53
2023-01-05T18:14:50.911Z,7.56
2023-01-05T18:17:17.578Z,7.59
2023-01-05T18:19:44.315Z,7.62
2023-01-05T18:22:11.360Z,7.63
2023-01-05T18:24:41.408Z,7.67
2023-01-05T18:27:09.434Z,7.68
2023-01-05T18:29:36.802Z,7.67
2023-01-05T18:32:03.876Z,7.68
2023-01-05T18:34:30.430Z,7.66
2023-01-05T18:37:02.071Z,7.72
2023-01-05T18:39:33.126Z,7.68
2023-01-05T18:41:59.700Z,7.71
2023-01-05T18:44:26.421Z,7.73
2023-01-05T18:46:52.982Z,7.74
2023-01-05T18:49:19.562Z,7.73
2023-01-05T18:51:46.064Z,7.75
2023-01-05T18:54:12.729Z,7.77
2023-01-05T18:56:39.452Z,7.73
2023-01-05T18:59:06.091Z,7.77
2023-01-05T19:01:32.633Z,7.77
2023-01-05T19:03:59.301Z,7.78
2023-01-05T19:06:25.866Z,7.76
2023-01-05T19:08:52.511Z,7.75
2023-01-05T19:11:22.073Z,7.74
2023-01-05T19:13:49.292Z,7.77
2023-01-05T19:16:17.077Z,7.80
2023-01-05T19:18:46.023Z,7.79
2023-01-05T19:21:12.600Z,7.80
2023-01-05T19:23:39.231Z,7.83
2023-01-05T19:26:06.813Z,7.89
2023-01-05T19:28:37.287Z,7.88
2023-01-05T19:31:04.925Z,7.90
2023-01-05T19:33:31.587Z,7.90
2023-01-05T19:36:17.691Z,7.89
2023-01-05T19:38:45.739Z,7.97
2023-01-05T19:41:13.853Z,7.97
2023-01-05T19:43:41.311Z,7.99
2023-01-05T19:46:12.131Z,7.96
2023-01-05T19:48:39.622Z,7.96
2023-01-05T19:51:07.631Z,7.96
2023-01-05T19:53:35.230Z,8.00
2023-01-05T19:56:12.990Z,8.01
2023-01-05T19:58:40.046Z,8.01
2023-01-05T20:01:07.920Z,8.04
2023-01-05T20:03:34.821Z,8.02
2023-01-05T20:06:08.980Z,8.02
2023-01-05T20:08:36.356Z,8.05
2023-01-05T20:11:11.257Z,8.09
2023-01-05T20:13:38.011Z,8.06
2023-01-05T20:16:09.188Z,8.11
2023-01-05T20:18:36.343Z,8.15
2023-01-05T20:21:04.385Z,8.18
2023-01-05T20:23:39.286Z,8.20
2023-01-05T20:26:13.504Z,8.22
2023-01-05T20:28:40.127Z,8.21
2023-01-05T20:31:14.452Z,8.22
2023-01-05T20:33:41.085Z,8.19
2023-01-05T20:36:07.717Z,8.21
2023-01-05T20:38:34.346Z,8.24
2023-01-05T20:41:00.939Z,8.32
2023-01-05T20:43:27.626Z,8.28
2023-01-05T20:45:54.165Z,8.28
2023-01-05T20:48:20.780Z,8.26
2023-01-05T20:50:47.319Z,8.22
2023-01-05T20:53:16.313Z,8.18
2023-01-05T20:55:46.525Z,8.10
2023-01-05T20:58:13.115Z,8.08
2023-01-05T21:01:10.390Z,8.01
2023-01-05T21:03:26.861Z,7.96
2023-01-05T21:05:53.492Z,7.92
2023-01-05T21:08:21.391Z,7.89
2023-01-05T21:10:52.148Z,7.86
2023-01-05T21:13:31.668Z,7.82
2023-01-05T21:16:02.779Z,7.83
2023-01-05T21:18:30.281Z,7.83
2023-01-05T21:20:57.318Z,7.81
2023-01-05T21:23:24.096Z,7.80
2023-01-05T21:26:06.340Z,7.78
2023-01-05T21:28:35.551Z,7.78
2023-01-05T21:31:03.692Z,7.73
2023-01-05T21:33:30.399Z,7.67
2023-01-05T21:35:57.246Z,7.62
2023-01-05T21:38:24.561Z,7.59
2023-01-05T21:40:51.333Z,7.58
2023-01-05T21:43:19.050Z,7.50
2023-01-05T21:45:45.762Z,7.49
2023-01-05T21:48:12.379Z,7.43
2023-01-05T21:50:57.902Z,7.43
2023-01-05T21:53:43.225Z,7.34
2023-01-05T21:56:26.181Z,7.34
2023-01-05T21:58:53.714Z,7.22
2023-01-05T22:01:20.313Z,7.20
2023-01-05T22:03:46.977Z,7.13
2023-01-05T22:06:13.500Z,7.04
2023-01-05T22:08:40.179Z,7.01
2023-01-05T22:11:06.805Z,6.89
2023-01-05T22:13:35.219Z,6.87
2023-01-05T22:16:01.977Z,6.86
2023-01-05T22:18:28.571Z,6.81
2023-01-05T22:20:59.073Z,6.80
2023-01-05T22:23:27.185Z,6.74
2023-01-05T22:25:58.553Z,6.70
2023-01-05T22:28:25.260Z,6.66
2023-01-05T22:30:51.894Z,6.63
2023-01-05T22:33:18.576Z,6.63
2023-01-05T22:35:45.183Z,6.66
2023-01-05T22:38:11.996Z,6.70
2023-01-05T22:40:38.759Z,6.67
2023-01-05T22:43:05.513Z,6.67
2023-01-05T22:45:32.460Z,6.57
2023-01-05T22:48:00.063Z,6.57
2023-01-05T22:50:26.775Z,6.57
2023-01-05T22:52:54.569Z,6.57
2023-01-05T22:55:21.229Z,6.53
2023-01-05T22:57:47.848Z,6.52
2023-01-05T23:00:15.786Z,6.53
2023-01-05T23:02:42.653Z,6.45
2023-01-05T23:05:09.567Z,6.42
2023-01-05T23:07:36.267Z,6.34
2023-01-05T23:10:02.872Z,6.34
2023-01-05T23:12:29.507Z,6.28
2023-01-05T23:14:56.140Z,6.26
2023-01-05T23:17:22.752Z,6.26
2023-01-05T23:19:49.404Z,6.28
2023-01-05T23:22:15.953Z,6.26
2023-01-05T23:24:45.315Z,6.25
2023-01-05T23:27:14.504Z,6.23
2023-01-05T23:29:41.022Z,6.16
2023-01-05T23:32:07.878Z,6.10
2023-01-05T23:34:38.164Z,6.15
2023-01-05T23:37:05.681Z,6.14
2023-01-05T23:39:37.204Z,6.10
2023-01-05T23:42:26.732Z,6.06
2023-01-05T23:44:55.215Z,5.98
2023-01-05T23:47:21.839Z,5.87
2023-01-05T23:49:48.391Z,5.81
2023-01-05T23:52:15.019Z,5.71
2023-01-05T23:54:41.696Z,5.70
2023-01-05T23:57:08.581Z,5.60
2023-01-05T23:59:35.188Z,5.61
